sensor_id;sensor_type;location;lat;lon;timestamp;P1;durP1;ratioP1;P2;durP2;ratioP2
56269;SDS011;42176;43.240;27.880;2023-06-14T00:00:38;5.30;;;1.98;;
56269;SDS011;42176;43.240;27.880;2023-06-14T00:03:08;2.22;;;2.03;;
56269;SDS011;42176;43.240;27.880;2023-06-14T00:05:35;2.85;;;1.98;;
56269;SDS011;42176;43.240;27.880;2023-06-14T00:08:06;3.63;;;1.90;;
56269;SDS011;42176;43.240;27.880;2023-06-14T00:10:33;2.38;;;1.98;;
56269;SDS011;42176;43.240;27.880;2023-06-14T00:13:01;2.92;;;1.92;;
56269;SDS011;42176;43.240;27.880;2023-06-14T00:15:27;2.67;;;1.77;;
56269;SDS011;42176;43.240;27.880;2023-06-14T00:17:53;2.25;;;1.80;;
56269;SDS011;42176;43.240;27.880;2023-06-14T00:20:19;4.30;;;2.38;;
56269;SDS011;42176;43.240;27.880;2023-06-14T00:22:46;2.95;;;1.80;;
56269;SDS011;42176;43.240;27.880;2023-06-14T00:25:11;1.90;;;1.70;;
56269;SDS011;42176;43.240;27.880;2023-06-14T00:27:37;2.28;;;2.03;;
56269;SDS011;42176;43.240;27.880;2023-06-14T00:30:03;5.18;;;2.17;;
56269;SDS011;42176;43.240;27.880;2023-06-14T00:32:28;2.10;;;1.90;;
56269;SDS011;42176;43.240;27.880;2023-06-14T00:34:54;2.72;;;1.75;;
56269;SDS011;42176;43.240;27.880;2023-06-14T00:37:20;6.35;;;2.60;;
56269;SDS011;42176;43.240;27.880;2023-06-14T00:39:45;4.18;;;2.10;;
56269;SDS011;42176;43.240;27.880;2023-06-14T00:42:11;3.95;;;1.70;;
56269;SDS011;42176;43.240;27.880;2023-06-14T00:44:36;1.88;;;1.70;;
56269;SDS011;42176;43.240;27.880;2023-06-14T00:47:02;4.18;;;2.10;;
56269;SDS011;42176;43.240;27.880;2023-06-14T00:49:28;3.25;;;2.15;;
56269;SDS011;42176;43.240;27.880;2023-06-14T00:51:54;3.08;;;1.80;;
56269;SDS011;42176;43.240;27.880;2023-06-14T00:54:20;2.63;;;2.20;;
56269;SDS011;42176;43.240;27.880;2023-06-14T00:56:46;8.05;;;3.13;;
56269;SDS011;42176;43.240;27.880;2023-06-14T00:59:11;2.15;;;1.95;;
56269;SDS011;42176;43.240;27.880;2023-06-14T01:01:37;5.15;;;2.17;;
56269;SDS011;42176;43.240;27.880;2023-06-14T01:04:03;3.90;;;2.00;;
56269;SDS011;42176;43.240;27.880;2023-06-14T01:09:40;4.80;;;2.17;;
56269;SDS011;42176;43.240;27.880;2023-06-14T01:13:21;8.90;;;2.17;;
56269;SDS011;42176;43.240;27.880;2023-06-14T01:15:35;3.90;;;2.10;;
56269;SDS011;42176;43.240;27.880;2023-06-14T01:18:02;3.40;;;2.08;;
56269;SDS011;42176;43.240;27.880;2023-06-14T01:20:30;4.18;;;2.28;;
56269;SDS011;42176;43.240;27.880;2023-06-14T01:22:58;2.33;;;2.13;;
56269;SDS011;42176;43.240;27.880;2023-06-14T01:25:24;1.92;;;1.77;;
56269;SDS011;42176;43.240;27.880;2023-06-14T01:27:58;3.50;;;1.88;;
56269;SDS011;42176;43.240;27.880;2023-06-14T01:30:27;3.63;;;2.40;;
56269;SDS011;42176;43.240;27.880;2023-06-14T01:32:56;2.20;;;2.00;;
56269;SDS011;42176;43.240;27.880;2023-06-14T01:35:23;6.45;;;2.22;;
56269;SDS011;42176;43.240;27.880;2023-06-14T01:37:49;3.72;;;2.40;;
56269;SDS011;42176;43.240;27.880;2023-06-14T01:40:17;2.85;;;2.40;;
56269;SDS011;42176;43.240;27.880;2023-06-14T01:42:44;5.07;;;2.30;;
56269;SDS011;42176;43.240;27.880;2023-06-14T01:45:12;6.18;;;2.55;;
56269;SDS011;42176;43.240;27.880;2023-06-14T01:47:38;5.28;;;2.58;;
56269;SDS011;42176;43.240;27.880;2023-06-14T01:50:05;4.38;;;2.58;;
56269;SDS011;42176;43.240;27.880;2023-06-14T01:52:30;2.97;;;2.60;;
56269;SDS011;42176;43.240;27.880;2023-06-14T01:54:56;8.95;;;2.88;;
56269;SDS011;42176;43.240;27.880;2023-06-14T01:57:23;5.35;;;1.90;;
56269;SDS011;42176;43.240;27.880;2023-06-14T01:59:50;5.00;;;3.00;;
56269;SDS011;42176;43.240;27.880;2023-06-14T02:02:16;4.18;;;2.85;;
56269;SDS011;42176;43.240;27.880;2023-06-14T02:04:41;4.10;;;2.50;;
56269;SDS011;42176;43.240;27.880;2023-06-14T02:07:07;3.08;;;2.78;;
56269;SDS011;42176;43.240;27.880;2023-06-14T02:09:36;4.28;;;3.75;;
56269;SDS011;42176;43.240;27.880;2023-06-14T02:12:01;4.68;;;3.00;;
56269;SDS011;42176;43.240;27.880;2023-06-14T02:14:27;4.57;;;2.90;;
56269;SDS011;42176;43.240;27.880;2023-06-14T02:16:52;6.03;;;3.42;;
56269;SDS011;42176;43.240;27.880;2023-06-14T02:19:19;4.47;;;3.00;;
56269;SDS011;42176;43.240;27.880;2023-06-14T02:21:45;8.75;;;2.65;;
56269;SDS011;42176;43.240;27.880;2023-06-14T02:24:11;6.60;;;2.80;;
56269;SDS011;42176;43.240;27.880;2023-06-14T02:26:37;6.53;;;2.95;;
56269;SDS011;42176;43.240;27.880;2023-06-14T02:29:08;6.77;;;3.03;;
56269;SDS011;42176;43.240;27.880;2023-06-14T02:31:37;3.83;;;3.00;;
56269;SDS011;42176;43.240;27.880;2023-06-14T02:34:03;4.40;;;3.25;;
56269;SDS011;42176;43.240;27.880;2023-06-14T02:36:29;6.57;;;3.03;;
56269;SDS011;42176;43.240;27.880;2023-06-14T02:38:55;6.07;;;3.35;;
56269;SDS011;42176;43.240;27.880;2023-06-14T02:41:23;7.15;;;3.58;;
56269;SDS011;42176;43.240;27.880;2023-06-14T02:43:49;4.43;;;3.10;;
56269;SDS011;42176;43.240;27.880;2023-06-14T02:46:14;5.97;;;3.83;;
56269;SDS011;42176;43.240;27.880;2023-06-14T02:48:40;5.22;;;3.20;;
56269;SDS011;42176;43.240;27.880;2023-06-14T02:51:06;6.75;;;4.13;;
56269;SDS011;42176;43.240;27.880;2023-06-14T02:53:33;4.72;;;3.90;;
56269;SDS011;42176;43.240;27.880;2023-06-14T02:55:59;5.18;;;4.13;;
56269;SDS011;42176;43.240;27.880;2023-06-14T02:58:24;6.03;;;3.33;;
56269;SDS011;42176;43.240;27.880;2023-06-14T03:00:50;6.10;;;4.10;;
56269;SDS011;42176;43.240;27.880;2023-06-14T03:03:17;4.78;;;3.67;;
56269;SDS011;42176;43.240;27.880;2023-06-14T03:05:44;5.57;;;4.28;;
56269;SDS011;42176;43.240;27.880;2023-06-14T03:08:12;4.65;;;4.10;;
56269;SDS011;42176;43.240;27.880;2023-06-14T03:10:47;8.95;;;3.88;;
56269;SDS011;42176;43.240;27.880;2023-06-14T03:13:17;5.60;;;4.43;;
56269;SDS011;42176;43.240;27.880;2023-06-14T03:18:12;4.22;;;3.42;;
56269;SDS011;42176;43.240;27.880;2023-06-14T03:20:40;8.10;;;3.42;;
56269;SDS011;42176;43.240;27.880;2023-06-14T03:23:06;7.85;;;3.88;;
56269;SDS011;42176;43.240;27.880;2023-06-14T03:25:31;6.85;;;3.90;;
56269;SDS011;42176;43.240;27.880;2023-06-14T03:28:03;5.35;;;3.65;;
56269;SDS011;42176;43.240;27.880;2023-06-14T03:30:29;4.05;;;3.55;;
56269;SDS011;42176;43.240;27.880;2023-06-14T03:32:55;4.53;;;4.03;;
56269;SDS011;42176;43.240;27.880;2023-06-14T03:35:21;3.95;;;3.55;;
56269;SDS011;42176;43.240;27.880;2023-06-14T03:37:47;8.20;;;3.58;;
56269;SDS011;42176;43.240;27.880;2023-06-14T03:40:15;9.20;;;4.03;;
56269;SDS011;42176;43.240;27.880;2023-06-14T03:42:42;7.38;;;3.72;;
56269;SDS011;42176;43.240;27.880;2023-06-14T03:45:08;9.20;;;4.28;;
56269;SDS011;42176;43.240;27.880;2023-06-14T03:47:34;4.63;;;3.67;;
56269;SDS011;42176;43.240;27.880;2023-06-14T03:50:01;6.80;;;4.13;;
56269;SDS011;42176;43.240;27.880;2023-06-14T03:52:27;14.02;;;3.75;;
56269;SDS011;42176;43.240;27.880;2023-06-14T03:54:53;7.30;;;2.90;;
56269;SDS011;42176;43.240;27.880;2023-06-14T03:57:18;7.25;;;3.42;;
56269;SDS011;42176;43.240;27.880;2023-06-14T03:59:47;22.38;;;3.75;;
56269;SDS011;42176;43.240;27.880;2023-06-14T04:02:13;13.15;;;3.75;;
56269;SDS011;42176;43.240;27.880;2023-06-14T04:04:43;4.32;;;3.13;;
56269;SDS011;42176;43.240;27.880;2023-06-14T04:07:14;6.85;;;4.05;;
56269;SDS011;42176;43.240;27.880;2023-06-14T04:09:44;8.75;;;3.65;;
56269;SDS011;42176;43.240;27.880;2023-06-14T04:12:10;13.15;;;5.55;;
56269;SDS011;42176;43.240;27.880;2023-06-14T04:14:39;7.05;;;3.72;;
56269;SDS011;42176;43.240;27.880;2023-06-14T04:17:05;7.32;;;3.38;;
56269;SDS011;42176;43.240;27.880;2023-06-14T04:19:31;4.28;;;3.50;;
56269;SDS011;42176;43.240;27.880;2023-06-14T04:21:57;6.60;;;3.88;;
56269;SDS011;42176;43.240;27.880;2023-06-14T04:24:26;20.80;;;4.05;;
56269;SDS011;42176;43.240;27.880;2023-06-14T04:26:59;8.40;;;3.22;;
56269;SDS011;42176;43.240;27.880;2023-06-14T04:29:26;18.42;;;4.43;;
56269;SDS011;42176;43.240;27.880;2023-06-14T04:31:53;5.85;;;3.60;;
56269;SDS011;42176;43.240;27.880;2023-06-14T04:34:19;5.57;;;3.60;;
56269;SDS011;42176;43.240;27.880;2023-06-14T04:36:47;6.70;;;3.58;;
56269;SDS011;42176;43.240;27.880;2023-06-14T04:39:21;5.28;;;3.33;;
56269;SDS011;42176;43.240;27.880;2023-06-14T04:41:47;7.55;;;3.80;;
56269;SDS011;42176;43.240;27.880;2023-06-14T04:44:18;8.43;;;3.40;;
56269;SDS011;42176;43.240;27.880;2023-06-14T04:46:44;6.45;;;3.03;;
56269;SDS011;42176;43.240;27.880;2023-06-14T04:49:16;3.65;;;3.30;;
56269;SDS011;42176;43.240;27.880;2023-06-14T04:51:43;6.55;;;3.63;;
56269;SDS011;42176;43.240;27.880;2023-06-14T04:54:09;11.77;;;4.15;;
56269;SDS011;42176;43.240;27.880;2023-06-14T04:56:37;5.75;;;3.30;;
56269;SDS011;42176;43.240;27.880;2023-06-14T04:59:03;4.18;;;3.50;;
56269;SDS011;42176;43.240;27.880;2023-06-14T05:01:31;4.75;;;3.35;;
56269;SDS011;42176;43.240;27.880;2023-06-14T05:03:58;7.22;;;3.20;;
56269;SDS011;42176;43.240;27.880;2023-06-14T05:06:24;4.18;;;3.42;;
56269;SDS011;42176;43.240;27.880;2023-06-14T05:08:51;6.38;;;4.20;;
56269;SDS011;42176;43.240;27.880;2023-06-14T05:11:16;8.93;;;3.40;;
56269;SDS011;42176;43.240;27.880;2023-06-14T05:13:42;5.75;;;3.47;;
56269;SDS011;42176;43.240;27.880;2023-06-14T05:16:08;4.10;;;2.83;;
56269;SDS011;42176;43.240;27.880;2023-06-14T05:18:34;4.43;;;3.10;;
56269;SDS011;42176;43.240;27.880;2023-06-14T05:21:00;3.40;;;2.80;;
56269;SDS011;42176;43.240;27.880;2023-06-14T05:23:26;4.50;;;3.20;;
56269;SDS011;42176;43.240;27.880;2023-06-14T05:25:52;3.40;;;2.92;;
56269;SDS011;42176;43.240;27.880;2023-06-14T05:28:18;5.03;;;3.00;;
56269;SDS011;42176;43.240;27.880;2023-06-14T05:30:43;8.73;;;3.42;;
56269;SDS011;42176;43.240;27.880;2023-06-14T05:33:09;3.50;;;3.20;;
56269;SDS011;42176;43.240;27.880;2023-06-14T05:35:34;8.27;;;3.25;;
56269;SDS011;42176;43.240;27.880;2023-06-14T05:38:00;3.45;;;3.17;;
56269;SDS011;42176;43.240;27.880;2023-06-14T05:40:26;3.30;;;3.00;;
56269;SDS011;42176;43.240;27.880;2023-06-14T05:42:51;4.28;;;3.03;;
56269;SDS011;42176;43.240;27.880;2023-06-14T05:45:17;8.70;;;3.30;;
56269;SDS011;42176;43.240;27.880;2023-06-14T05:47:43;3.28;;;3.08;;
56269;SDS011;42176;43.240;27.880;2023-06-14T05:50:08;3.20;;;2.97;;
56269;SDS011;42176;43.240;27.880;2023-06-14T05:52:34;6.00;;;3.08;;
56269;SDS011;42176;43.240;27.880;2023-06-14T05:55:01;4.40;;;3.33;;
56269;SDS011;42176;43.240;27.880;2023-06-14T05:57:28;6.47;;;2.92;;
56269;SDS011;42176;43.240;27.880;2023-06-14T05:59:54;2.88;;;2.20;;
56269;SDS011;42176;43.240;27.880;2023-06-14T06:02:19;12.32;;;2.60;;
56269;SDS011;42176;43.240;27.880;2023-06-14T06:04:45;4.80;;;2.53;;
56269;SDS011;42176;43.240;27.880;2023-06-14T06:07:10;2.60;;;2.35;;
56269;SDS011;42176;43.240;27.880;2023-06-14T06:09:36;3.55;;;2.78;;
56269;SDS011;42176;43.240;27.880;2023-06-14T06:12:02;2.30;;;2.10;;
56269;SDS011;42176;43.240;27.880;2023-06-14T06:14:28;2.75;;;2.25;;
56269;SDS011;42176;43.240;27.880;2023-06-14T06:16:53;5.68;;;2.35;;
56269;SDS011;42176;43.240;27.880;2023-06-14T06:19:19;3.42;;;2.17;;
56269;SDS011;42176;43.240;27.880;2023-06-14T06:21:45;5.03;;;2.47;;
56269;SDS011;42176;43.240;27.880;2023-06-14T06:24:10;4.05;;;2.70;;
56269;SDS011;42176;43.240;27.880;2023-06-14T06:26:36;4.55;;;2.65;;
56269;SDS011;42176;43.240;27.880;2023-06-14T06:29:02;2.53;;;2.20;;
56269;SDS011;42176;43.240;27.880;2023-06-14T06:31:27;1.80;;;1.70;;
56269;SDS011;42176;43.240;27.880;2023-06-14T06:33:55;4.32;;;2.22;;
56269;SDS011;42176;43.240;27.880;2023-06-14T06:36:21;2.60;;;1.60;;
56269;SDS011;42176;43.240;27.880;2023-06-14T06:38:47;2.55;;;1.92;;
56269;SDS011;42176;43.240;27.880;2023-06-14T06:41:13;4.38;;;2.00;;
56269;SDS011;42176;43.240;27.880;2023-06-14T06:43:38;2.10;;;1.90;;
56269;SDS011;42176;43.240;27.880;2023-06-14T06:46:03;3.38;;;1.85;;
56269;SDS011;42176;43.240;27.880;2023-06-14T06:48:29;8.18;;;2.25;;
56269;SDS011;42176;43.240;27.880;2023-06-14T06:50:55;2.13;;;1.90;;
56269;SDS011;42176;43.240;27.880;2023-06-14T06:53:20;1.40;;;1.30;;
56269;SDS011;42176;43.240;27.880;2023-06-14T06:55:46;1.60;;;1.50;;
56269;SDS011;42176;43.240;27.880;2023-06-14T06:58:12;2.63;;;1.70;;
56269;SDS011;42176;43.240;27.880;2023-06-14T07:00:37;1.92;;;1.77;;
56269;SDS011;42176;43.240;27.880;2023-06-14T07:03:03;1.90;;;1.80;;
56269;SDS011;42176;43.240;27.880;2023-06-14T07:05:29;4.05;;;1.83;;
56269;SDS011;42176;43.240;27.880;2023-06-14T07:07:54;1.98;;;1.88;;
56269;SDS011;42176;43.240;27.880;2023-06-14T07:10:20;1.90;;;1.80;;
56269;SDS011;42176;43.240;27.880;2023-06-14T07:12:46;2.05;;;1.95;;
56269;SDS011;42176;43.240;27.880;2023-06-14T07:15:11;3.55;;;1.90;;
56269;SDS011;42176;43.240;27.880;2023-06-14T07:17:37;1.83;;;1.73;;
56269;SDS011;42176;43.240;27.880;2023-06-14T07:20:03;1.95;;;1.85;;
56269;SDS011;42176;43.240;27.880;2023-06-14T07:22:33;1.85;;;1.75;;
56269;SDS011;42176;43.240;27.880;2023-06-14T07:24:59;3.60;;;1.67;;
56269;SDS011;42176;43.240;27.880;2023-06-14T07:27:24;1.80;;;1.70;;
56269;SDS011;42176;43.240;27.880;2023-06-14T07:29:49;1.40;;;1.30;;
56269;SDS011;42176;43.240;27.880;2023-06-14T07:32:15;1.08;;;1.05;;
56269;SDS011;42176;43.240;27.880;2023-06-14T07:34:40;2.75;;;1.60;;
56269;SDS011;42176;43.240;27.880;2023-06-14T07:37:06;2.42;;;1.73;;
56269;SDS011;42176;43.240;27.880;2023-06-14T07:39:31;1.58;;;1.48;;
56269;SDS011;42176;43.240;27.880;2023-06-14T07:41:57;1.73;;;1.63;;
56269;SDS011;42176;43.240;27.880;2023-06-14T07:44:22;5.38;;;2.20;;
56269;SDS011;42176;43.240;27.880;2023-06-14T07:46:47;2.25;;;1.70;;
56269;SDS011;42176;43.240;27.880;2023-06-14T07:49:14;4.53;;;2.13;;
56269;SDS011;42176;43.240;27.880;2023-06-14T07:51:40;2.55;;;1.50;;
56269;SDS011;42176;43.240;27.880;2023-06-14T07:54:05;2.75;;;1.80;;
56269;SDS011;42176;43.240;27.880;2023-06-14T07:56:32;3.50;;;1.65;;
56269;SDS011;42176;43.240;27.880;2023-06-14T07:58:58;4.45;;;1.83;;
56269;SDS011;42176;43.240;27.880;2023-06-14T08:01:23;1.65;;;1.55;;
56269;SDS011;42176;43.240;27.880;2023-06-14T08:03:52;1.60;;;1.50;;
56269;SDS011;42176;43.240;27.880;2023-06-14T08:06:18;2.03;;;1.85;;
56269;SDS011;42176;43.240;27.880;2023-06-14T08:08:45;1.73;;;1.63;;
56269;SDS011;42176;43.240;27.880;2023-06-14T08:11:11;2.42;;;1.85;;
56269;SDS011;42176;43.240;27.880;2023-06-14T08:13:36;2.22;;;1.90;;
56269;SDS011;42176;43.240;27.880;2023-06-14T08:16:01;3.65;;;1.80;;
56269;SDS011;42176;43.240;27.880;2023-06-14T08:18:29;4.63;;;1.92;;
56269;SDS011;42176;43.240;27.880;2023-06-14T08:20:55;3.80;;;2.13;;
56269;SDS011;42176;43.240;27.880;2023-06-14T08:23:22;2.08;;;1.58;;
56269;SDS011;42176;43.240;27.880;2023-06-14T08:25:48;2.33;;;2.10;;
56269;SDS011;42176;43.240;27.880;2023-06-14T08:28:13;6.40;;;1.90;;
56269;SDS011;42176;43.240;27.880;2023-06-14T08:30:39;3.53;;;1.90;;
56269;SDS011;42176;43.240;27.880;2023-06-14T08:33:04;2.60;;;2.05;;
56269;SDS011;42176;43.240;27.880;2023-06-14T08:35:30;6.03;;;2.53;;
56269;SDS011;42176;43.240;27.880;2023-06-14T08:37:55;1.80;;;1.70;;
56269;SDS011;42176;43.240;27.880;2023-06-14T08:40:22;3.22;;;1.63;;
56269;SDS011;42176;43.240;27.880;2023-06-14T08:42:52;4.28;;;1.88;;
56269;SDS011;42176;43.240;27.880;2023-06-14T08:45:23;3.67;;;1.92;;
56269;SDS011;42176;43.240;27.880;2023-06-14T08:47:50;2.03;;;1.92;;
56269;SDS011;42176;43.240;27.880;2023-06-14T08:50:18;3.22;;;1.63;;
56269;SDS011;42176;43.240;27.880;2023-06-14T08:52:45;3.40;;;2.38;;
56269;SDS011;42176;43.240;27.880;2023-06-14T08:55:18;4.57;;;1.83;;
56269;SDS011;42176;43.240;27.880;2023-06-14T08:57:46;2.15;;;2.05;;
56269;SDS011;42176;43.240;27.880;2023-06-14T09:00:14;1.98;;;1.77;;
56269;SDS011;42176;43.240;27.880;2023-06-14T09:02:40;5.53;;;2.10;;
56269;SDS011;42176;43.240;27.880;2023-06-14T09:05:12;2.28;;;2.08;;
56269;SDS011;42176;43.240;27.880;2023-06-14T09:07:41;12.10;;;2.25;;
56269;SDS011;42176;43.240;27.880;2023-06-14T09:10:14;2.00;;;1.80;;
56269;SDS011;42176;43.240;27.880;2023-06-14T09:12:40;3.30;;;2.17;;
56269;SDS011;42176;43.240;27.880;2023-06-14T09:15:07;2.00;;;1.90;;
56269;SDS011;42176;43.240;27.880;2023-06-14T09:17:37;3.35;;;1.85;;
56269;SDS011;42176;43.240;27.880;2023-06-14T09:20:07;2.27;;;1.60;;
56269;SDS011;42176;43.240;27.880;2023-06-14T09:22:44;3.78;;;2.15;;
56269;SDS011;42176;43.240;27.880;2023-06-14T09:25:10;4.65;;;1.75;;
56269;SDS011;42176;43.240;27.880;2023-06-14T09:27:38;4.75;;;1.63;;
56269;SDS011;42176;43.240;27.880;2023-06-14T09:30:05;2.03;;;1.80;;
56269;SDS011;42176;43.240;27.880;2023-06-14T09:32:36;2.25;;;1.73;;
56269;SDS011;42176;43.240;27.880;2023-06-14T09:35:03;1.90;;;1.67;;
56269;SDS011;42176;43.240;27.880;2023-06-14T09:37:32;2.85;;;1.73;;
56269;SDS011;42176;43.240;27.880;2023-06-14T09:39:58;2.00;;;1.90;;
56269;SDS011;42176;43.240;27.880;2023-06-14T09:42:24;2.35;;;1.77;;
56269;SDS011;42176;43.240;27.880;2023-06-14T09:44:51;1.65;;;1.55;;
56269;SDS011;42176;43.240;27.880;2023-06-14T09:47:19;2.72;;;2.20;;
56269;SDS011;42176;43.240;27.880;2023-06-14T09:49:45;2.40;;;1.98;;
56269;SDS011;42176;43.240;27.880;2023-06-14T09:52:14;4.03;;;1.85;;
56269;SDS011;42176;43.240;27.880;2023-06-14T09:54:43;1.92;;;1.42;;
56269;SDS011;42176;43.240;27.880;2023-06-14T09:57:12;3.13;;;1.80;;
56269;SDS011;42176;43.240;27.880;2023-06-14T09:59:42;1.88;;;1.60;;
56269;SDS011;42176;43.240;27.880;2023-06-14T10:02:18;7.53;;;2.28;;
56269;SDS011;42176;43.240;27.880;2023-06-14T10:05:08;2.58;;;1.90;;
56269;SDS011;42176;43.240;27.880;2023-06-14T10:07:44;2.42;;;1.50;;
56269;SDS011;42176;43.240;27.880;2023-06-14T10:10:17;2.22;;;1.42;;
56269;SDS011;42176;43.240;27.880;2023-06-14T10:12:43;3.50;;;1.65;;
56269;SDS011;42176;43.240;27.880;2023-06-14T10:15:09;5.72;;;1.67;;
56269;SDS011;42176;43.240;27.880;2023-06-14T10:17:43;1.70;;;1.60;;
56269;SDS011;42176;43.240;27.880;2023-06-14T10:20:19;3.17;;;1.80;;
56269;SDS011;42176;43.240;27.880;2023-06-14T10:22:55;1.98;;;1.77;;
56269;SDS011;42176;43.240;27.880;2023-06-14T10:25:30;3.25;;;2.03;;
56269;SDS011;42176;43.240;27.880;2023-06-14T10:30:37;3.40;;;1.33;;
56269;SDS011;42176;43.240;27.880;2023-06-14T10:33:03;1.55;;;1.40;;
56269;SDS011;42176;43.240;27.880;2023-06-14T10:35:29;2.47;;;1.50;;
56269;SDS011;42176;43.240;27.880;2023-06-14T10:37:55;1.80;;;1.70;;
56269;SDS011;42176;43.240;27.880;2023-06-14T10:40:31;3.45;;;2.35;;
56269;SDS011;42176;43.240;27.880;2023-06-14T10:42:59;3.05;;;2.30;;
56269;SDS011;42176;43.240;27.880;2023-06-14T10:45:24;9.23;;;2.53;;
56269;SDS011;42176;43.240;27.880;2023-06-14T10:47:50;5.28;;;2.30;;
56269;SDS011;42176;43.240;27.880;2023-06-14T10:50:17;6.68;;;2.55;;
56269;SDS011;42176;43.240;27.880;2023-06-14T10:52:56;3.15;;;2.85;;
56269;SDS011;42176;43.240;27.880;2023-06-14T10:55:21;3.20;;;2.58;;
56269;SDS011;42176;43.240;27.880;2023-06-14T10:57:54;6.75;;;2.72;;
56269;SDS011;42176;43.240;27.880;2023-06-14T11:00:24;4.95;;;2.55;;
56269;SDS011;42176;43.240;27.880;2023-06-14T11:05:42;2.33;;;2.10;;
56269;SDS011;42176;43.240;27.880;2023-06-14T11:10:57;2.33;;;1.90;;
56269;SDS011;42176;43.240;27.880;2023-06-14T11:13:25;2.80;;;2.20;;
56269;SDS011;42176;43.240;27.880;2023-06-14T11:15:51;5.35;;;2.80;;
56269;SDS011;42176;43.240;27.880;2023-06-14T11:18:21;3.33;;;2.40;;
56269;SDS011;42176;43.240;27.880;2023-06-14T11:20:49;4.30;;;2.45;;
56269;SDS011;42176;43.240;27.880;2023-06-14T11:23:15;4.97;;;2.63;;
56269;SDS011;42176;43.240;27.880;2023-06-14T11:25:40;3.90;;;2.45;;
56269;SDS011;42176;43.240;27.880;2023-06-14T11:28:06;6.07;;;2.70;;
56269;SDS011;42176;43.240;27.880;2023-06-14T11:30:32;6.32;;;2.95;;
56269;SDS011;42176;43.240;27.880;2023-06-14T11:32:57;10.02;;;2.13;;
56269;SDS011;42176;43.240;27.880;2023-06-14T11:35:23;2.85;;;2.65;;
56269;SDS011;42176;43.240;27.880;2023-06-14T11:37:53;3.65;;;2.53;;
56269;SDS011;42176;43.240;27.880;2023-06-14T11:40:22;4.32;;;2.78;;
56269;SDS011;42176;43.240;27.880;2023-06-14T11:42:48;5.55;;;2.40;;
56269;SDS011;42176;43.240;27.880;2023-06-14T11:45:14;8.70;;;2.85;;
56269;SDS011;42176;43.240;27.880;2023-06-14T11:47:39;2.78;;;2.53;;
56269;SDS011;42176;43.240;27.880;2023-06-14T11:50:06;2.85;;;2.45;;
56269;SDS011;42176;43.240;27.880;2023-06-14T11:52:33;5.72;;;2.67;;
56269;SDS011;42176;43.240;27.880;2023-06-14T11:54:59;4.28;;;2.80;;
56269;SDS011;42176;43.240;27.880;2023-06-14T11:57:26;2.63;;;2.42;;
56269;SDS011;42176;43.240;27.880;2023-06-14T11:59:51;3.28;;;2.80;;
56269;SDS011;42176;43.240;27.880;2023-06-14T12:02:17;4.13;;;3.03;;
56269;SDS011;42176;43.240;27.880;2023-06-14T12:04:46;4.63;;;2.92;;
56269;SDS011;42176;43.240;27.880;2023-06-14T12:07:15;3.78;;;2.78;;
56269;SDS011;42176;43.240;27.880;2023-06-14T12:12:22;3.05;;;2.60;;
56269;SDS011;42176;43.240;27.880;2023-06-14T12:14:50;7.35;;;2.50;;
56269;SDS011;42176;43.240;27.880;2023-06-14T12:17:17;6.80;;;3.20;;
56269;SDS011;42176;43.240;27.880;2023-06-14T12:19:43;4.22;;;2.50;;
56269;SDS011;42176;43.240;27.880;2023-06-14T12:22:10;12.10;;;3.40;;
56269;SDS011;42176;43.240;27.880;2023-06-14T12:24:36;4.88;;;2.70;;
56269;SDS011;42176;43.240;27.880;2023-06-14T12:27:03;6.65;;;3.03;;
56269;SDS011;42176;43.240;27.880;2023-06-14T12:29:29;3.35;;;2.80;;
56269;SDS011;42176;43.240;27.880;2023-06-14T12:31:55;4.72;;;3.33;;
56269;SDS011;42176;43.240;27.880;2023-06-14T12:34:25;4.03;;;3.63;;
56269;SDS011;42176;43.240;27.880;2023-06-14T12:36:52;4.65;;;3.22;;
56269;SDS011;42176;43.240;27.880;2023-06-14T12:39:18;10.70;;;4.55;;
56269;SDS011;42176;43.240;27.880;2023-06-14T12:41:43;6.15;;;3.47;;
56269;SDS011;42176;43.240;27.880;2023-06-14T12:44:09;9.95;;;4.25;;
56269;SDS011;42176;43.240;27.880;2023-06-14T12:46:36;8.43;;;3.75;;
56269;SDS011;42176;43.240;27.880;2023-06-14T12:49:02;15.60;;;4.68;;
56269;SDS011;42176;43.240;27.880;2023-06-14T12:51:27;7.28;;;4.32;;
56269;SDS011;42176;43.240;27.880;2023-06-14T12:53:53;6.43;;;4.32;;
56269;SDS011;42176;43.240;27.880;2023-06-14T12:56:18;6.93;;;4.50;;
56269;SDS011;42176;43.240;27.880;2023-06-14T12:58:44;9.98;;;4.20;;
56269;SDS011;42176;43.240;27.880;2023-06-14T13:01:09;7.40;;;4.60;;
56269;SDS011;42176;43.240;27.880;2023-06-14T13:03:35;10.07;;;4.53;;
56269;SDS011;42176;43.240;27.880;2023-06-14T13:06:00;6.43;;;4.32;;
56269;SDS011;42176;43.240;27.880;2023-06-14T13:08:27;7.30;;;4.80;;
56269;SDS011;42176;43.240;27.880;2023-06-14T13:10:53;10.18;;;4.65;;
56269;SDS011;42176;43.240;27.880;2023-06-14T13:13:18;5.30;;;4.05;;
56269;SDS011;42176;43.240;27.880;2023-06-14T13:15:44;8.27;;;4.35;;
56269;SDS011;42176;43.240;27.880;2023-06-14T13:18:11;6.82;;;4.40;;
56269;SDS011;42176;43.240;27.880;2023-06-14T13:20:38;6.93;;;4.30;;
56269;SDS011;42176;43.240;27.880;2023-06-14T13:23:04;7.45;;;4.70;;
56269;SDS011;42176;43.240;27.880;2023-06-14T13:25:32;6.97;;;5.60;;
56269;SDS011;42176;43.240;27.880;2023-06-14T13:27:59;9.57;;;5.75;;
56269;SDS011;42176;43.240;27.880;2023-06-14T13:30:24;11.70;;;5.25;;
56269;SDS011;42176;43.240;27.880;2023-06-14T13:32:50;8.60;;;5.35;;
56269;SDS011;42176;43.240;27.880;2023-06-14T13:35:17;8.90;;;4.75;;
56269;SDS011;42176;43.240;27.880;2023-06-14T13:37:43;6.15;;;4.70;;
56269;SDS011;42176;43.240;27.880;2023-06-14T13:40:09;9.65;;;5.40;;
56269;SDS011;42176;43.240;27.880;2023-06-14T13:42:34;6.30;;;4.82;;
56269;SDS011;42176;43.240;27.880;2023-06-14T13:45:01;5.82;;;4.85;;
56269;SDS011;42176;43.240;27.880;2023-06-14T13:47:27;6.97;;;5.32;;
56269;SDS011;42176;43.240;27.880;2023-06-14T13:49:53;11.05;;;4.72;;
56269;SDS011;42176;43.240;27.880;2023-06-14T13:52:18;7.70;;;4.50;;
56269;SDS011;42176;43.240;27.880;2023-06-14T13:54:44;8.80;;;5.43;;
56269;SDS011;42176;43.240;27.880;2023-06-14T13:57:09;9.50;;;4.85;;
56269;SDS011;42176;43.240;27.880;2023-06-14T13:59:37;7.18;;;4.13;;
56269;SDS011;42176;43.240;27.880;2023-06-14T14:02:04;4.93;;;4.10;;
56269;SDS011;42176;43.240;27.880;2023-06-14T14:04:30;4.90;;;4.07;;
56269;SDS011;42176;43.240;27.880;2023-06-14T14:06:56;6.07;;;4.18;;
56269;SDS011;42176;43.240;27.880;2023-06-14T14:09:21;6.35;;;4.88;;
56269;SDS011;42176;43.240;27.880;2023-06-14T14:11:46;4.82;;;4.13;;
56269;SDS011;42176;43.240;27.880;2023-06-14T14:14:14;7.60;;;4.45;;
56269;SDS011;42176;43.240;27.880;2023-06-14T14:16:59;5.10;;;4.40;;
56269;SDS011;42176;43.240;27.880;2023-06-14T14:19:24;6.72;;;4.65;;
56269;SDS011;42176;43.240;27.880;2023-06-14T14:21:50;5.22;;;4.55;;
56269;SDS011;42176;43.240;27.880;2023-06-14T14:24:15;8.60;;;5.40;;
56269;SDS011;42176;43.240;27.880;2023-06-14T14:26:41;10.15;;;5.43;;
56269;SDS011;42176;43.240;27.880;2023-06-14T14:29:07;5.57;;;4.25;;
56269;SDS011;42176;43.240;27.880;2023-06-14T14:31:33;6.38;;;4.30;;
56269;SDS011;42176;43.240;27.880;2023-06-14T14:33:59;5.75;;;4.80;;
56269;SDS011;42176;43.240;27.880;2023-06-14T14:36:24;6.45;;;3.95;;
56269;SDS011;42176;43.240;27.880;2023-06-14T14:38:50;9.85;;;4.65;;
56269;SDS011;42176;43.240;27.880;2023-06-14T14:41:17;6.93;;;4.00;;
56269;SDS011;42176;43.240;27.880;2023-06-14T14:43:42;5.35;;;4.25;;
56269;SDS011;42176;43.240;27.880;2023-06-14T14:46:08;9.82;;;4.35;;
56269;SDS011;42176;43.240;27.880;2023-06-14T14:48:34;9.63;;;5.50;;